createdAt,value
2017-06-21T00:00:33.363Z,94.29
2017-06-21T00:01:33.425Z,94.50
2017-06-21T00:02:33.442Z,94.83
2017-06-21T00:03:33.450Z,95.07
2017-06-21T00:04:33.410Z,95.04
2017-06-21T00:05:33.456Z,95.01
2017-06-21T00:06:33.456Z,95.23
2017-06-21T00:07:33.451Z,95.61
2017-06-21T00:08:33.453Z,95.58
2017-06-21T00:09:33.358Z,95.61
2017-06-21T00:10:33.425Z,95.94
2017-06-21T00:11:33.407Z,95.85
2017-06-21T00:12:33.413Z,95.88
2017-06-21T00:13:33.369Z,95.56
2017-06-21T00:14:33.425Z,95.83
2017-06-21T00:15:33.447Z,95.85
2017-06-21T00:16:33.463Z,95.88
2017-06-21T00:17:33.370Z,95.66
2017-06-21T00:18:33.445Z,95.64
2017-06-21T00:19:33.370Z,95.39
2017-06-21T00:20:33.471Z,95.34
2017-06-21T00:21:33.453Z,95.23
2017-06-21T00:22:33.452Z,95.23
2017-06-21T00:23:33.431Z,95.34
2017-06-21T00:24:33.460Z,95.94
2017-06-21T00:25:33.452Z,95.91
2017-06-21T00:26:33.448Z,96.28
2017-06-21T00:27:33.476Z,96.61
2017-06-21T00:28:33.456Z,96.91
2017-06-21T00:29:33.445Z,96.85
2017-06-21T00:30:33.375Z,96.80
2017-06-21T00:31:33.398Z,96.66
2017-06-21T00:32:33.532Z,96.61
2017-06-21T00:33:33.457Z,96.17
2017-06-21T00:34:33.463Z,96.45
2017-06-21T00:35:33.446Z,96.58
2017-06-21T00:36:33.376Z,96.77
2017-06-21T00:37:33.379Z,97.15
2017-06-21T00:38:33.426Z,98.10
2017-06-21T00:39:33.475Z,98.31
2017-06-21T00:40:33.448Z,98.37
2017-06-21T00:41:33.375Z,98.37
2017-06-21T00:42:33.452Z,97.99
2017-06-21T00:43:33.390Z,97.85
2017-06-21T00:44:33.466Z,97.50
2017-06-21T00:45:33.476Z,97.18
2017-06-21T00:46:33.386Z,96.88
2017-06-21T00:47:33.460Z,96.80
2017-06-21T00:48:33.466Z,96.47
2017-06-21T00:49:33.466Z,96.09
2017-06-21T00:50:33.404Z,96.34
2017-06-21T00:51:33.477Z,96.80
2017-06-21T00:52:33.388Z,97.04
2017-06-21T00:53:33.467Z,96.80
2017-06-21T00:54:33.476Z,96.61
2017-06-21T00:55:33.477Z,96.34
2017-06-21T00:56:33.440Z,96.42
2017-06-21T00:57:33.440Z,97.21
2017-06-21T00:58:33.441Z,97.77
2017-06-21T00:59:33.444Z,98.34
2017-06-21T01:00:33.443Z,98.75
2017-06-21T01:01:33.445Z,99.04
2017-06-21T01:02:33.443Z,98.91
2017-06-21T01:03:33.447Z,98.72
2017-06-21T01:04:33.445Z,98.88
2017-06-21T01:05:33.447Z,98.59
2017-06-21T01:06:33.479Z,98.61
2017-06-21T01:07:33.397Z,98.66
2017-06-21T01:08:33.472Z,99.15
2017-06-21T01:09:33.481Z,99.62
2017-06-21T01:10:33.473Z,99.53
2017-06-21T01:11:33.477Z,99.51
2017-06-21T01:12:33.478Z,99.56
2017-06-21T01:13:33.395Z,99.62
2017-06-21T01:14:33.446Z,99.48
2017-06-21T01:15:33.477Z,99.21
2017-06-21T01:16:33.466Z,98.99
2017-06-21T01:17:33.470Z,99.40
2017-06-21T01:18:33.546Z,99.26
2017-06-21T01:19:33.472Z,98.85
2017-06-21T01:20:33.482Z,98.66
2017-06-21T01:21:33.482Z,98.40
2017-06-21T01:22:33.472Z,98.48
2017-06-21T01:23:33.381Z,98.59
2017-06-21T01:24:33.471Z,98.80
2017-06-21T01:25:33.473Z,99.07
2017-06-21T01:26:33.446Z,99.29
2017-06-21T01:27:33.486Z,99.18
2017-06-21T01:28:33.406Z,99.10
2017-06-21T01:29:33.409Z,98.96
2017-06-21T01:30:33.491Z,99.15
2017-06-21T01:31:33.492Z,99.10
2017-06-21T01:32:33.502Z,99.62
2017-06-21T01:33:33.484Z,99.62
2017-06-21T01:34:33.493Z,99.72
2017-06-21T01:36:33.451Z,99.53
2017-06-21T01:37:33.493Z,99.37
2017-06-21T01:38:33.503Z,99.34
2017-06-21T01:39:33.457Z,99.78
2017-06-21T01:40:33.480Z,99.99
2017-06-21T01:41:33.499Z,99.99
2017-06-21T01:42:33.489Z,99.99
2017-06-21T01:43:33.489Z,99.99
2017-06-21T01:44:33.494Z,99.92
2017-06-21T01:45:33.467Z,99.72
2017-06-21T01:46:33.496Z,99.72
2017-06-21T01:47:33.482Z,99.43
2017-06-21T01:48:33.464Z,99.29
2017-06-21T01:49:33.483Z,99.07
2017-06-21T01:50:33.487Z,99.02
2017-06-21T01:51:33.483Z,99.02
2017-06-21T01:52:33.487Z,99.21
2017-06-21T01:53:33.483Z,99.48
2017-06-21T01:54:33.485Z,99.29
2017-06-21T01:55:33.482Z,99.15
2017-06-21T01:56:33.425Z,99.99
2017-06-21T01:57:33.468Z,99.99
2017-06-21T01:58:33.423Z,99.99
2017-06-21T01:59:33.494Z,99.99
2017-06-21T02:00:33.515Z,99.99
2017-06-21T02:01:33.427Z,99.99
2017-06-21T02:02:33.617Z,99.99
2017-06-21T02:03:33.506Z,99.99
2017-06-21T02:04:33.417Z,99.99
2017-06-21T02:05:33.509Z,99.99
2017-06-21T02:06:33.398Z,99.99
2017-06-21T02:07:33.377Z,99.99
2017-06-21T02:08:33.400Z,99.99
2017-06-21T02:09:33.453Z,99.99
2017-06-21T02:10:33.454Z,99.94
2017-06-21T02:11:33.397Z,99.99
2017-06-21T02:12:33.371Z,99.94
2017-06-21T02:13:33.419Z,99.72
2017-06-21T02:14:33.436Z,99.48
2017-06-21T02:15:33.403Z,99.56
2017-06-21T02:16:33.518Z,99.99
2017-06-21T02:17:33.518Z,99.99
2017-06-21T02:18:33.515Z,99.99
2017-06-21T02:19:33.516Z,99.99
2017-06-21T02:20:33.452Z,99.99
2017-06-21T02:21:33.486Z,99.99
2017-06-21T02:22:33.476Z,99.99
2017-06-21T02:23:33.434Z,99.99
2017-06-21T02:24:33.436Z,99.99
2017-06-21T02:25:33.520Z,99.99
2017-06-21T02:26:33.515Z,99.99
2017-06-21T02:27:33.522Z,99.99
2017-06-21T02:28:33.508Z,99.99
2017-06-21T02:29:33.521Z,99.99
2017-06-21T02:30:33.518Z,99.99
2017-06-21T02:31:33.484Z,99.99
2017-06-21T02:32:33.439Z,99.99
2017-06-21T02:33:33.537Z,99.99
2017-06-21T02:34:33.524Z,99.99
2017-06-21T02:35:33.449Z,99.99
2017-06-21T02:36:33.511Z,99.99
2017-06-21T02:37:33.516Z,99.99
2017-06-21T02:38:33.527Z,99.99
2017-06-21T02:39:33.527Z,99.99
2017-06-21T02:40:33.558Z,99.99
2017-06-21T02:41:33.531Z,99.99
2017-06-21T02:42:33.491Z,99.99
2017-06-21T02:43:33.449Z,99.99
2017-06-21T02:44:33.533Z,99.99
2017-06-21T02:45:33.524Z,99.99
2017-06-21T02:46:33.536Z,99.99
2017-06-21T02:47:33.531Z,99.99
2017-06-21T02:48:33.447Z,99.99
2017-06-21T02:49:33.449Z,99.99
2017-06-21T02:50:33.528Z,99.99
2017-06-21T02:51:33.446Z,99.99
2017-06-21T02:52:33.533Z,99.99
2017-06-21T02:53:33.537Z,99.99
2017-06-21T02:54:33.499Z,99.99
2017-06-21T02:55:33.529Z,99.99
2017-06-21T02:56:33.522Z,99.99
2017-06-21T02:57:33.506Z,99.99
2017-06-21T02:58:33.509Z,99.99
2017-06-21T02:59:33.507Z,99.99
2017-06-21T03:00:33.511Z,99.99
2017-06-21T03:01:33.509Z,99.99
2017-06-21T03:02:33.509Z,99.99
2017-06-21T03:03:33.509Z,99.99
2017-06-21T03:04:33.510Z,99.99
2017-06-21T03:05:33.509Z,99.99
2017-06-21T03:06:33.512Z,99.99
2017-06-21T03:07:33.526Z,99.99
2017-06-21T03:08:33.527Z,99.99
2017-06-21T03:09:33.478Z,99.99
2017-06-21T03:10:33.528Z,99.99
2017-06-21T03:11:33.530Z,99.99
2017-06-21T03:12:33.448Z,99.99
2017-06-21T03:13:33.531Z,99.99
2017-06-21T03:14:33.530Z,99.99
2017-06-21T03:15:33.547Z,99.99
2017-06-21T03:16:33.531Z,99.99
2017-06-21T03:17:33.528Z,99.99
2017-06-21T03:18:33.529Z,99.99
2017-06-21T03:19:33.536Z,99.99
2017-06-21T03:20:33.630Z,99.99
2017-06-21T03:21:33.531Z,99.99
2017-06-21T03:22:33.460Z,99.99
2017-06-21T03:23:33.538Z,99.99
2017-06-21T03:24:33.531Z,99.99
2017-06-21T03:25:33.535Z,99.99
2017-06-21T03:26:33.532Z,99.99
2017-06-21T03:27:33.552Z,99.99
2017-06-21T03:28:33.475Z,99.99
2017-06-21T03:29:33.657Z,99.99
2017-06-21T03:30:33.469Z,99.99
2017-06-21T03:31:33.472Z,99.99
2017-06-21T03:32:33.559Z,99.99
2017-06-21T03:33:33.469Z,99.99
2017-06-21T03:34:33.515Z,99.99
2017-06-21T03:35:33.472Z,99.99
2017-06-21T03:36:33.565Z,99.99
2017-06-21T03:37:33.535Z,99.99
2017-06-21T03:38:33.571Z,99.99
2017-06-21T03:39:33.475Z,99.99
2017-06-21T03:40:33.552Z,99.99
2017-06-21T03:41:33.562Z,99.99
2017-06-21T03:42:33.556Z,99.99
2017-06-21T03:43:33.554Z,99.99
2017-06-21T03:44:33.572Z,99.99
2017-06-21T03:45:33.548Z,99.99
2017-06-21T03:46:33.565Z,99.99
2017-06-21T03:47:33.563Z,99.99
2017-06-21T03:48:33.570Z,99.99
2017-06-21T03:49:33.559Z,99.99
2017-06-21T03:50:33.567Z,99.99
2017-06-21T03:51:33.573Z,99.99
2017-06-21T03:52:33.479Z,99.99
2017-06-21T03:53:33.480Z,99.99
2017-06-21T03:54:33.569Z,99.96
2017-06-21T03:55:33.541Z,99.53
2017-06-21T03:56:33.524Z,99.51
2017-06-21T03:57:33.488Z,99.37
2017-06-21T03:58:33.562Z,99.32
2017-06-21T03:59:33.574Z,99.23
2017-06-21T04:00:33.490Z,99.13
2017-06-21T04:01:33.567Z,99.40
2017-06-21T04:02:33.571Z,99.67
2017-06-21T04:03:33.490Z,99.81
2017-06-21T04:04:33.581Z,99.94
2017-06-21T04:05:33.491Z,99.99
2017-06-21T04:06:33.575Z,99.99
2017-06-21T04:07:33.581Z,99.99
2017-06-21T04:08:33.569Z,99.99
2017-06-21T04:09:33.578Z,99.99
2017-06-21T04:10:33.571Z,99.99
2017-06-21T04:11:33.576Z,99.99
2017-06-21T04:12:33.538Z,99.99
2017-06-21T04:13:33.639Z,99.99
2017-06-21T04:14:33.497Z,99.99
2017-06-21T04:15:33.491Z,99.99
2017-06-21T04:16:33.496Z,99.86
2017-06-21T04:17:33.528Z,99.81
2017-06-21T04:18:33.463Z,99.64
2017-06-21T04:19:33.532Z,99.59
2017-06-21T04:20:33.537Z,99.18
2017-06-21T04:21:33.496Z,98.72
2017-06-21T04:22:33.587Z,98.12
2017-06-21T04:23:33.487Z,97.26
2017-06-21T04:24:33.544Z,95.98
2017-06-21T04:25:33.474Z,95.69
2017-06-21T04:26:33.478Z,95.39
2017-06-21T04:27:33.579Z,95.72
2017-06-21T04:28:33.585Z,95.47
2017-06-21T04:29:33.590Z,95.61
2017-06-21T04:30:33.582Z,95.23
2017-06-21T04:31:33.591Z,95.20
2017-06-21T04:32:33.596Z,95.53
2017-06-21T04:33:33.506Z,95.47
2017-06-21T04:34:33.580Z,95.34
2017-06-21T04:35:33.565Z,94.29
2017-06-21T04:36:33.569Z,94.04
2017-06-21T04:37:33.593Z,93.13
2017-06-21T04:38:33.589Z,93.02
2017-06-21T04:39:33.510Z,93.32
2017-06-21T04:40:33.517Z,92.49
2017-06-21T04:41:33.594Z,91.73
2017-06-21T04:42:33.572Z,90.85
2017-06-21T04:43:33.611Z,90.90
2017-06-21T04:44:33.511Z,90.58
2017-06-21T04:45:33.602Z,90.58
2017-06-21T04:46:33.507Z,90.34
2017-06-21T04:47:33.577Z,90.28
2017-06-21T04:48:33.575Z,90.34
2017-06-21T04:49:33.578Z,89.75
2017-06-21T04:50:33.578Z,89.16
2017-06-21T04:51:33.574Z,89.29
2017-06-21T04:52:33.578Z,89.11
2017-06-21T04:53:33.578Z,89.16
2017-06-21T04:54:33.578Z,89.97
2017-06-21T04:55:33.584Z,89.43
2017-06-21T04:56:33.579Z,90.02
2017-06-21T04:57:33.603Z,89.86
2017-06-21T04:58:33.581Z,89.40
2017-06-21T04:59:33.525Z,88.87
2017-06-21T05:00:33.593Z,88.87
2017-06-21T05:01:33.706Z,88.81
2017-06-21T05:02:33.512Z,88.68
2017-06-21T05:03:33.606Z,88.57
2017-06-21T05:04:33.604Z,88.52
2017-06-21T05:05:33.607Z,87.74
2017-06-21T05:06:33.606Z,87.96
2017-06-21T05:07:33.573Z,87.56
2017-06-21T05:08:33.574Z,87.93
2017-06-21T05:09:33.576Z,87.67
2017-06-21T05:10:33.576Z,87.59
2017-06-21T05:11:33.578Z,87.67
2017-06-21T05:12:33.581Z,87.96
2017-06-21T05:13:33.579Z,87.90
2017-06-21T05:14:33.576Z,87.24
2017-06-21T05:15:33.581Z,87.08
2017-06-21T05:16:33.585Z,87.61
2017-06-21T05:17:33.587Z,87.21
2017-06-21T05:18:33.618Z,86.81
2017-06-21T05:19:33.615Z,86.71
2017-06-21T05:20:33.527Z,87.40
2017-06-21T05:21:33.525Z,87.21
2017-06-21T05:22:33.533Z,86.49
2017-06-21T05:23:33.626Z,86.91
2017-06-21T05:24:33.538Z,85.88
2017-06-21T05:25:33.609Z,86.30
2017-06-21T05:26:33.595Z,86.20
2017-06-21T05:27:33.619Z,86.84
2017-06-21T05:28:33.600Z,86.54
2017-06-21T05:29:33.600Z,85.24
2017-06-21T05:30:33.706Z,85.08
2017-06-21T05:31:33.604Z,84.95
2017-06-21T05:32:33.604Z,85.80
2017-06-21T05:33:33.604Z,85.35
2017-06-21T05:34:33.606Z,85.77
2017-06-21T05:35:33.604Z,85.35
2017-06-21T05:36:33.543Z,84.47
2017-06-21T05:37:33.604Z,84.55
2017-06-21T05:38:33.605Z,83.65
2017-06-21T05:39:33.606Z,83.89
2017-06-21T05:40:33.609Z,84.60
2017-06-21T05:41:33.608Z,84.71
2017-06-21T05:42:33.613Z,84.02
2017-06-21T05:43:33.610Z,83.22
2017-06-21T05:44:33.610Z,82.85
2017-06-21T05:45:33.608Z,83.51
2017-06-21T05:46:33.609Z,82.88
2017-06-21T05:47:33.610Z,83.01
2017-06-21T05:48:33.608Z,82.43
2017-06-21T05:49:33.607Z,82.08
2017-06-21T05:50:33.611Z,80.84
2017-06-21T05:51:33.611Z,80.57
2017-06-21T05:52:33.610Z,79.07
2017-06-21T05:53:33.613Z,78.78
2017-06-21T05:54:33.533Z,79.94
2017-06-21T05:55:33.581Z,79.20
2017-06-21T05:56:33.535Z,78.31
2017-06-21T05:57:33.536Z,77.54
2017-06-21T05:58:33.531Z,77.54
2017-06-21T05:59:33.536Z,77.62
2017-06-21T06:00:33.532Z,77.23
2017-06-21T06:01:33.576Z,77.20
2017-06-21T06:02:33.682Z,77.62
2017-06-21T06:03:33.620Z,77.81
2017-06-21T06:04:33.616Z,76.86
2017-06-21T06:05:33.621Z,77.62
2017-06-21T06:06:33.619Z,77.07
2017-06-21T06:07:33.620Z,77.67
2017-06-21T06:08:33.623Z,76.39
2017-06-21T06:09:33.619Z,76.73
2017-06-21T06:10:33.622Z,75.60
2017-06-21T06:11:33.623Z,75.57
2017-06-21T06:12:33.643Z,73.95
2017-06-21T06:13:33.591Z,73.37
2017-06-21T06:14:33.629Z,74.13
2017-06-21T06:15:33.593Z,74.44
2017-06-21T06:16:33.551Z,74.52
2017-06-21T06:17:33.543Z,72.38
2017-06-21T06:18:33.589Z,71.78
2017-06-21T06:19:33.587Z,70.97
2017-06-21T06:20:33.608Z,70.95
2017-06-21T06:21:33.587Z,71.44
2017-06-21T06:22:33.556Z,72.53
2017-06-21T06:23:33.596Z,72.12
2017-06-21T06:24:33.618Z,72.07
2017-06-21T06:25:33.619Z,71.21
2017-06-21T06:26:33.617Z,71.47
2017-06-21T06:27:33.620Z,70.82
2017-06-21T06:28:33.619Z,71.23
2017-06-21T06:29:33.620Z,70.71
2017-06-21T06:30:33.620Z,69.02
2017-06-21T06:31:33.622Z,70.97
2017-06-21T06:32:33.623Z,70.87
2017-06-21T06:33:33.626Z,69.36
2017-06-21T06:34:33.589Z,69.72
2017-06-21T06:35:33.607Z,69.07
2017-06-21T06:36:33.544Z,68.06
2017-06-21T06:37:33.593Z,67.05
2017-06-21T06:38:33.608Z,69.12
2017-06-21T06:39:33.600Z,66.89
2017-06-21T06:40:33.556Z,68.94
2017-06-21T06:41:33.600Z,68.29
2017-06-21T06:42:33.560Z,66.74
2017-06-21T06:43:33.612Z,64.75
2017-06-21T06:44:33.580Z,64.34
2017-06-21T06:45:33.658Z,65.11
2017-06-21T06:46:33.666Z,64.88
2017-06-21T06:47:33.642Z,64.46
2017-06-21T06:48:33.643Z,65.01
2017-06-21T06:49:33.623Z,64.80
2017-06-21T06:50:33.584Z,63.05
2017-06-21T06:51:33.667Z,63.98
2017-06-21T06:52:33.664Z,65.01
2017-06-21T06:53:33.665Z,65.58
2017-06-21T06:54:33.645Z,64.88
2017-06-21T06:55:33.646Z,65.06
2017-06-21T06:56:33.648Z,64.88
2017-06-21T06:57:33.648Z,64.57
2017-06-21T06:58:33.648Z,65.99
2017-06-21T06:59:33.651Z,61.91
2017-06-21T07:00:33.651Z,63.54
2017-06-21T07:01:33.651Z,64.05
2017-06-21T07:02:33.633Z,63.92
2017-06-21T07:03:33.655Z,61.99
2017-06-21T07:04:33.688Z,61.25
2017-06-21T07:05:33.673Z,61.74
2017-06-21T07:06:33.671Z,61.76
2017-06-21T07:07:33.665Z,62.84
2017-06-21T07:08:33.647Z,63.82
2017-06-21T07:09:33.637Z,60.84
2017-06-21T07:10:33.672Z,61.94
2017-06-21T07:11:33.651Z,62.27
2017-06-21T07:12:33.653Z,62.18
2017-06-21T07:13:33.598Z,61.46
2017-06-21T07:14:33.657Z,60.35
2017-06-21T07:15:33.654Z,61.48
2017-06-21T07:16:33.684Z,65.26
2017-06-21T07:17:33.660Z,61.86
2017-06-21T07:18:33.658Z,61.40
2017-06-21T07:19:33.659Z,58.53
2017-06-21T07:20:33.663Z,56.82
2017-06-21T07:21:33.661Z,57.02
2017-06-21T07:22:33.662Z,56.97
2017-06-21T07:23:33.662Z,56.90
2017-06-21T07:24:33.682Z,56.77
2017-06-21T07:25:33.681Z,56.41
2017-06-21T07:26:33.606Z,57.61
2017-06-21T07:27:33.661Z,55.30
2017-06-21T07:28:33.663Z,54.94
2017-06-21T07:29:33.606Z,57.61
2017-06-21T07:30:33.663Z,56.80
2017-06-21T07:31:33.686Z,59.56
2017-06-21T07:32:33.602Z,57.26
2017-06-21T07:33:33.605Z,58.04
2017-06-21T07:34:33.666Z,57.92
2017-06-21T07:35:33.605Z,57.56
2017-06-21T07:36:33.683Z,57.23
2017-06-21T07:37:33.680Z,58.07
2017-06-21T07:38:33.693Z,58.33
2017-06-21T07:39:33.607Z,56.18
2017-06-21T07:40:33.690Z,55.57
2017-06-21T07:41:33.607Z,59.94
2017-06-21T07:42:33.694Z,55.19
2017-06-21T07:43:33.607Z,55.06
2017-06-21T07:44:33.691Z,55.27
2017-06-21T07:45:33.603Z,57.48
2017-06-21T07:46:33.688Z,55.45
2017-06-21T07:47:33.683Z,55.72
2017-06-21T07:48:33.610Z,54.30
2017-06-21T07:49:33.612Z,54.76
2017-06-21T07:50:33.696Z,54.76
2017-06-21T07:51:33.668Z,53.54
2017-06-21T07:52:33.655Z,55.11
2017-06-21T07:53:33.701Z,55.09
2017-06-21T07:54:33.645Z,56.69
2017-06-21T07:55:33.598Z,56.36
2017-06-21T07:56:33.599Z,56.93
2017-06-21T07:57:33.746Z,56.31
2017-06-21T07:58:33.647Z,57.08
2017-06-21T07:59:33.642Z,58.89
2017-06-21T08:00:33.602Z,54.20
2017-06-21T08:01:33.604Z,51.97
2017-06-21T08:02:33.603Z,53.90
2017-06-21T08:03:33.695Z,54.02
2017-06-21T08:04:33.662Z,52.57
2017-06-21T08:05:33.706Z,55.39
2017-06-21T08:06:33.703Z,55.72
2017-06-21T08:07:33.678Z,52.50
2017-06-21T08:08:33.712Z,56.06
2017-06-21T08:09:33.706Z,55.02
2017-06-21T08:10:33.687Z,52.17
2017-06-21T08:11:33.709Z,52.32
2017-06-21T08:12:33.668Z,50.58
2017-06-21T08:13:33.708Z,51.87
2017-06-21T08:14:33.619Z,58.04
2017-06-21T08:15:33.714Z,55.65
2017-06-21T08:16:33.691Z,56.21
2017-06-21T08:17:33.630Z,53.79
2017-06-21T08:18:33.638Z,50.18
2017-06-21T08:19:33.633Z,49.69
2017-06-21T08:20:33.628Z,49.44
2017-06-21T08:21:33.715Z,49.69
2017-06-21T08:22:33.632Z,50.33
2017-06-21T08:23:33.695Z,53.31
2017-06-21T08:24:33.633Z,53.31
2017-06-21T08:25:33.715Z,50.60
2017-06-21T08:26:33.680Z,56.95
2017-06-21T08:27:33.716Z,49.55
2017-06-21T08:28:33.717Z,52.50
2017-06-21T08:29:33.639Z,52.63
2017-06-21T08:30:33.693Z,47.78
2017-06-21T08:31:33.718Z,47.91
2017-06-21T08:32:33.724Z,51.21
2017-06-21T08:33:33.715Z,45.32
2017-06-21T08:34:33.715Z,46.25
2017-06-21T08:35:33.700Z,44.35
2017-06-21T08:36:33.643Z,44.93
2017-06-21T08:37:33.727Z,45.10
2017-06-21T08:38:33.727Z,44.02
2017-06-21T08:39:33.647Z,42.85
2017-06-21T08:40:33.661Z,44.85
2017-06-21T08:41:33.725Z,43.50
2017-06-21T08:42:33.640Z,44.90
2017-06-21T08:43:33.727Z,45.90
2017-06-21T08:44:33.726Z,46.75
2017-06-21T08:45:33.727Z,48.23
2017-06-21T08:46:33.650Z,48.99
2017-06-21T08:47:33.651Z,48.23
2017-06-21T08:48:33.639Z,50.86
2017-06-21T08:49:33.649Z,51.74
2017-06-21T08:50:33.712Z,49.95
2017-06-21T08:51:33.725Z,50.96
2017-06-21T08:52:33.642Z,46.27
2017-06-21T08:53:33.697Z,49.32
2017-06-21T08:54:33.740Z,55.88
2017-06-21T08:55:33.734Z,49.75
2017-06-21T08:56:33.740Z,47.76
2017-06-21T08:57:33.650Z,47.31
2017-06-21T08:58:33.744Z,48.21
2017-06-21T08:59:33.657Z,49.62
2017-06-21T09:00:33.729Z,54.48
2017-06-21T09:01:33.744Z,53.72
2017-06-21T09:02:33.649Z,51.77
2017-06-21T09:03:33.728Z,48.89
2017-06-21T09:04:33.713Z,47.18
2017-06-21T09:05:33.654Z,46.63
2017-06-21T09:06:33.740Z,48.86
2017-06-21T09:07:33.740Z,52.32
2017-06-21T09:08:33.742Z,43.75
2017-06-21T09:09:33.743Z,42.92
2017-06-21T09:10:33.740Z,43.85
2017-06-21T09:11:33.657Z,36.20
2017-06-21T09:12:33.739Z,38.99
2017-06-21T09:13:33.750Z,42.45
2017-06-21T09:14:33.656Z,42.87
2017-06-21T09:15:33.743Z,41.88
2017-06-21T09:16:33.743Z,40.41
2017-06-21T09:17:33.735Z,43.27
2017-06-21T09:18:33.654Z,44.90
2017-06-21T09:19:33.661Z,41.63
2017-06-21T09:20:33.746Z,41.98
2017-06-21T09:21:33.706Z,44.05
2017-06-21T09:22:33.725Z,44.32
2017-06-21T09:23:33.656Z,45.73
2017-06-21T09:24:33.674Z,46.63
2017-06-21T09:25:33.663Z,43.42
2017-06-21T09:26:33.750Z,44.85
2017-06-21T09:27:33.672Z,44.32
2017-06-21T09:28:33.671Z,45.45
2017-06-21T09:29:33.846Z,45.15
2017-06-21T09:30:33.733Z,40.85
2017-06-21T09:31:33.732Z,40.06
2017-06-21T09:32:33.753Z,42.67
2017-06-21T09:33:33.667Z,39.64
2017-06-21T09:34:33.735Z,41.85
2017-06-21T09:35:33.661Z,42.50
2017-06-21T09:36:33.738Z,41.50
2017-06-21T09:37:33.739Z,39.40
2017-06-21T09:38:33.733Z,40.31
2017-06-21T09:39:33.739Z,43.95
2017-06-21T09:40:33.743Z,41.80
2017-06-21T09:41:33.738Z,44.72
2017-06-21T09:42:33.744Z,47.31
2017-06-21T09:43:33.742Z,43.35
2017-06-21T09:44:33.739Z,42.28
2017-06-21T09:45:33.741Z,42.15
2017-06-21T09:46:33.740Z,44.75
2017-06-21T09:47:33.739Z,44.75
2017-06-21T09:48:33.824Z,43.33
2017-06-21T09:49:33.744Z,44.30
2017-06-21T09:50:33.746Z,45.85
2017-06-21T09:51:33.749Z,45.35
2017-06-21T09:52:33.756Z,45.32
2017-06-21T09:53:33.745Z,45.85
2017-06-21T09:54:33.706Z,47.38
2017-06-21T09:55:33.763Z,47.00
2017-06-21T09:56:33.772Z,46.18
2017-06-21T09:57:33.767Z,48.74
2017-06-21T09:58:33.681Z,49.39
2017-06-21T09:59:33.691Z,44.68
2017-06-21T10:00:33.689Z,45.93
2017-06-21T10:01:33.757Z,52.27
2017-06-21T10:02:33.693Z,45.05
2017-06-21T10:03:33.724Z,43.38
2017-06-21T10:04:33.770Z,45.95
2017-06-21T10:05:33.679Z,43.47
2017-06-21T10:06:33.780Z,44.39
2017-06-21T10:07:33.689Z,43.57
2017-06-21T10:08:33.732Z,44.93
2017-06-21T10:09:33.764Z,44.27
2017-06-21T10:10:33.682Z,47.45
2017-06-21T10:11:33.777Z,44.72
2017-06-21T10:12:33.694Z,43.80
2017-06-21T10:13:33.776Z,47.40
2017-06-21T10:14:33.751Z,43.75
2017-06-21T10:15:33.738Z,44.25
2017-06-21T10:16:33.700Z,42.58
2017-06-21T10:17:33.739Z,42.58
2017-06-21T10:18:33.781Z,44.00
2017-06-21T10:19:33.780Z,49.85
2017-06-21T10:20:33.892Z,47.10
2017-06-21T10:21:33.779Z,42.53
2017-06-21T10:22:33.697Z,41.21
2017-06-21T10:23:33.772Z,40.71
2017-06-21T10:24:33.764Z,41.48
2017-06-21T10:25:33.769Z,49.06
2017-06-21T10:26:33.768Z,46.27
2017-06-21T10:27:33.763Z,45.68
2017-06-21T10:28:33.768Z,44.90
2017-06-21T10:29:33.766Z,42.85
2017-06-21T10:30:33.765Z,44.20
2017-06-21T10:31:33.782Z,44.12
2017-06-21T10:32:33.767Z,43.77
2017-06-21T10:33:33.856Z,44.75
2017-06-21T10:34:33.767Z,42.48
2017-06-21T10:35:33.768Z,43.13
2017-06-21T10:36:33.766Z,44.07
2017-06-21T10:37:33.769Z,42.37
2017-06-21T10:38:33.770Z,51.24
2017-06-21T10:39:33.695Z,44.30
2017-06-21T10:40:33.771Z,47.36
2017-06-21T10:41:33.770Z,44.85
2017-06-21T10:42:33.774Z,42.80
2017-06-21T10:43:33.773Z,42.78
2017-06-21T10:44:33.790Z,40.83
2017-06-21T10:45:33.792Z,40.63
2017-06-21T10:46:33.793Z,41.08
2017-06-21T10:47:33.790Z,41.98
2017-06-21T10:48:33.779Z,42.23
2017-06-21T10:49:33.713Z,39.47
2017-06-21T10:50:33.714Z,43.80
2017-06-21T10:51:33.775Z,40.98
2017-06-21T10:52:33.790Z,41.08
2017-06-21T10:53:33.717Z,42.83
2017-06-21T10:54:33.795Z,42.18
2017-06-21T10:55:33.756Z,40.85
2017-06-21T10:56:33.789Z,42.45
2017-06-21T10:57:33.759Z,41.45
2017-06-21T10:58:33.762Z,42.87
2017-06-21T10:59:33.802Z,48.03
2017-06-21T11:00:33.768Z,53.82
2017-06-21T11:01:33.808Z,46.12
2017-06-21T11:02:33.803Z,49.37
2017-06-21T11:03:33.912Z,40.78
2017-06-21T11:04:33.804Z,42.75
2017-06-21T11:05:33.804Z,42.33
2017-06-21T11:06:33.807Z,38.82
2017-06-21T11:07:33.807Z,39.62
2017-06-21T11:08:33.787Z,41.10
2017-06-21T11:09:33.763Z,41.35
2017-06-21T11:10:33.817Z,48.59
2017-06-21T11:11:33.723Z,40.01
2017-06-21T11:12:33.732Z,40.59
2017-06-21T11:13:33.787Z,41.68
2017-06-21T11:14:33.817Z,39.76
2017-06-21T11:15:33.719Z,41.01
2017-06-21T11:16:33.810Z,40.51
2017-06-21T11:17:33.815Z,43.13
2017-06-21T11:18:33.722Z,50.40
2017-06-21T11:19:33.813Z,44.87
2017-06-21T11:20:33.807Z,41.45
2017-06-21T11:21:33.729Z,42.67
2017-06-21T11:22:33.791Z,38.87
2017-06-21T11:23:33.810Z,38.97
2017-06-21T11:24:33.733Z,40.88
2017-06-21T11:25:33.813Z,42.67
2017-06-21T11:26:33.814Z,42.80
2017-06-21T11:27:33.816Z,40.46
2017-06-21T11:28:33.734Z,41.48
2017-06-21T11:29:33.822Z,42.10
2017-06-21T11:30:33.788Z,41.90
2017-06-21T11:31:33.825Z,41.45
2017-06-21T11:32:33.809Z,40.36
2017-06-21T11:33:33.798Z,40.68
2017-06-21T11:34:33.790Z,40.85
2017-06-21T11:35:33.791Z,40.31
2017-06-21T11:36:33.784Z,43.30
2017-06-21T11:37:33.819Z,43.17
2017-06-21T11:38:33.789Z,42.87
2017-06-21T11:39:33.791Z,44.43
2017-06-21T11:40:33.790Z,46.23
2017-06-21T11:41:33.793Z,42.58
2017-06-21T11:42:33.794Z,44.75
2017-06-21T11:43:33.793Z,42.23
2017-06-21T11:44:33.792Z,42.55
2017-06-21T11:45:33.794Z,43.47
2017-06-21T11:46:33.793Z,44.85
2017-06-21T11:47:33.793Z,47.20
2017-06-21T11:48:33.793Z,49.14
2017-06-21T11:49:33.795Z,45.45
2017-06-21T11:50:33.796Z,42.75
2017-06-21T11:51:33.796Z,44.05
2017-06-21T11:52:33.798Z,42.97
2017-06-21T11:53:33.796Z,42.45
2017-06-21T11:54:33.800Z,43.67
2017-06-21T11:55:33.833Z,41.21
2017-06-21T11:56:33.746Z,41.88
2017-06-21T11:57:33.751Z,41.01
2017-06-21T11:58:33.739Z,41.78
2017-06-21T11:59:33.746Z,41.06
2017-06-21T12:00:33.837Z,41.68
2017-06-21T12:01:33.792Z,42.23
2017-06-21T12:02:33.833Z,45.35
2017-06-21T12:03:33.845Z,43.63
2017-06-21T12:04:33.744Z,42.23
2017-06-21T12:05:33.815Z,40.76
2017-06-21T12:06:33.816Z,43.30
2017-06-21T12:07:33.818Z,42.83
2017-06-21T12:08:33.819Z,42.65
2017-06-21T12:09:33.816Z,42.65
2017-06-21T12:10:33.818Z,42.58
2017-06-21T12:11:33.816Z,42.55
2017-06-21T12:12:33.819Z,42.18
2017-06-21T12:13:33.822Z,44.52
2017-06-21T12:14:33.821Z,43.42
2017-06-21T12:15:33.810Z,43.77
2017-06-21T12:16:33.810Z,46.50
2017-06-21T12:17:33.811Z,43.17
2017-06-21T12:18:33.812Z,45.35
2017-06-21T12:19:33.816Z,47.51
2017-06-21T12:20:33.812Z,41.21
2017-06-21T12:21:33.817Z,43.63
2017-06-21T12:22:33.819Z,49.42
2017-06-21T12:23:33.821Z,45.70
2017-06-21T12:24:33.820Z,43.08
2017-06-21T12:25:33.818Z,40.36
2017-06-21T12:26:33.814Z,41.90
2017-06-21T12:27:33.815Z,43.63
2017-06-21T12:28:33.814Z,42.20
2017-06-21T12:29:33.814Z,42.95
2017-06-21T12:30:33.819Z,43.57
2017-06-21T12:31:33.816Z,43.57
2017-06-21T12:32:33.822Z,43.60
2017-06-21T12:33:33.820Z,41.40
2017-06-21T12:34:33.820Z,41.98
2017-06-21T12:35:33.751Z,41.73
2017-06-21T12:36:33.811Z,43.35
2017-06-21T12:37:33.763Z,45.68
2017-06-21T12:38:33.859Z,45.15
2017-06-21T12:39:33.748Z,42.75
2017-06-21T12:40:33.843Z,44.68
2017-06-21T12:41:33.842Z,45.32
2017-06-21T12:42:33.798Z,43.00
2017-06-21T12:43:33.795Z,42.10
2017-06-21T12:44:33.865Z,43.50
2017-06-21T12:45:33.798Z,43.75
2017-06-21T12:46:33.753Z,42.92
2017-06-21T12:47:33.754Z,43.40
2017-06-21T12:48:33.796Z,43.67
2017-06-21T12:49:33.801Z,44.37
2017-06-21T12:50:33.764Z,42.85
2017-06-21T12:51:33.810Z,44.43
2017-06-21T12:52:33.810Z,48.77
2017-06-21T12:53:33.745Z,48.74